createdAt,value
2022-10-31T00:03:57.217Z,90.12
2022-10-31T00:07:58.904Z,90.10
2022-10-31T00:12:00.637Z,90.32
2022-10-31T00:16:02.298Z,90.27
2022-10-31T00:20:04.308Z,90.67
2022-10-31T00:24:06.513Z,90.30
2022-10-31T00:28:11.422Z,90.56
2022-10-31T00:32:13.160Z,90.46
2022-10-31T00:36:18.590Z,90.69
2022-10-31T00:40:20.402Z,90.54
2022-10-31T00:44:22.132Z,90.84
2022-10-31T00:48:23.845Z,90.92
2022-10-31T00:52:25.731Z,90.79
2022-10-31T00:56:27.405Z,90.87
2022-10-31T01:00:29.203Z,91.15
2022-10-31T01:04:31.394Z,91.24
2022-10-31T01:08:33.740Z,91.15
2022-10-31T01:12:43.313Z,91.14
2022-10-31T01:16:45.071Z,91.54
2022-10-31T01:20:46.819Z,91.40
2022-10-31T01:24:52.230Z,91.94
2022-10-31T01:28:57.595Z,91.87
2022-10-31T01:32:59.641Z,91.97
2022-10-31T01:37:01.742Z,92.07
2022-10-31T01:41:03.578Z,92.59
2022-10-31T01:45:06.398Z,92.39
2022-10-31T01:49:19.597Z,92.47
2022-10-31T01:53:25.884Z,92.67
2022-10-31T01:57:30.358Z,92.65
2022-10-31T02:01:32.267Z,92.83
2022-10-31T02:05:34.950Z,93.21
2022-10-31T02:09:38.580Z,92.71
2022-10-31T02:13:40.364Z,93.34
2022-10-31T02:17:43.453Z,92.80
2022-10-31T02:21:57.507Z,92.89
2022-10-31T02:26:20.466Z,93.35
2022-10-31T02:30:25.136Z,93.08
2022-10-31T02:34:44.684Z,93.57
2022-10-31T02:39:14.641Z,93.41
2022-10-31T02:43:27.008Z,93.71
2022-10-31T02:47:33.268Z,93.53
2022-10-31T02:51:35.796Z,93.79
2022-10-31T02:55:38.821Z,93.64
2022-10-31T02:59:48.788Z,93.70
2022-10-31T03:04:08.915Z,94.32
2022-10-31T03:08:24.701Z,94.16
2022-10-31T03:12:48.647Z,94.37
2022-10-31T03:16:54.189Z,94.25
2022-10-31T03:21:11.057Z,94.60
2022-10-31T03:25:14.879Z,94.50
2022-10-31T03:29:19.865Z,94.40
2022-10-31T03:33:28.341Z,94.38
2022-10-31T03:37:35.039Z,94.42
2022-10-31T03:41:42.649Z,94.75
2022-10-31T03:45:47.743Z,94.84
2022-10-31T03:49:49.989Z,95.19
2022-10-31T03:54:03.167Z,95.18
2022-10-31T03:58:09.528Z,95.17
2022-10-31T04:02:17.224Z,95.38
2022-10-31T04:06:20.305Z,95.98
2022-10-31T04:10:25.449Z,95.44
2022-10-31T04:14:35.524Z,95.41
2022-10-31T04:18:37.325Z,95.66
2022-10-31T04:22:39.096Z,95.24
2022-10-31T04:26:40.820Z,95.56
2022-10-31T04:30:42.596Z,95.76
2022-10-31T04:34:44.512Z,95.29
2022-10-31T04:38:46.631Z,95.71
2022-10-31T04:43:02.270Z,95.74
2022-10-31T04:47:04.659Z,96.06
2022-10-31T04:51:06.445Z,96.12
2022-10-31T04:55:09.168Z,96.12
2022-10-31T04:59:29.352Z,96.23
2022-10-31T05:03:31.044Z,96.53
2022-10-31T05:07:32.726Z,96.13
2022-10-31T05:11:34.795Z,96.54
2022-10-31T05:15:50.793Z,96.40
2022-10-31T05:20:31.172Z,96.54
2022-10-31T05:24:51.249Z,96.80
2022-10-31T05:28:53.196Z,96.78
2022-10-31T05:32:55.779Z,96.92
2022-10-31T05:37:15.750Z,96.93
2022-10-31T05:41:17.442Z,96.55
2022-10-31T05:45:23.394Z,97.04
2022-10-31T05:49:32.749Z,97.16
2022-10-31T05:53:53.056Z,96.66
2022-10-31T05:57:56.253Z,96.79
2022-10-31T06:01:58.014Z,97.41
2022-10-31T06:06:22.513Z,97.13
2022-10-31T06:10:25.461Z,97.61
2022-10-31T06:14:29.846Z,97.78
2022-10-31T06:18:33.207Z,97.62
2022-10-31T06:22:35.896Z,97.73
2022-10-31T06:26:37.589Z,98.12
2022-10-31T06:30:39.410Z,97.93
2022-10-31T06:34:42.318Z,98.12
2022-10-31T06:38:44.650Z,98.26
2022-10-31T06:42:47.603Z,97.99
2022-10-31T06:46:49.836Z,98.15
2022-10-31T06:51:10.367Z,98.42
2022-10-31T06:55:12.737Z,98.63
2022-10-31T06:59:15.419Z,98.41
2022-10-31T07:03:43.458Z,98.64
2022-10-31T07:07:45.176Z,98.54
2022-10-31T07:11:48.072Z,98.76
2022-10-31T07:15:50.417Z,98.51
2022-10-31T07:19:52.501Z,98.57
2022-10-31T07:23:54.324Z,98.52
2022-10-31T07:28:14.803Z,98.49
2022-10-31T07:32:20.686Z,99.04
2022-10-31T07:36:28.402Z,98.89
2022-10-31T07:40:34.830Z,99.35
2022-10-31T07:44:37.977Z,99.47
2022-10-31T07:48:58.054Z,99.17
2022-10-31T07:53:18.292Z,99.61
2022-10-31T07:57:34.964Z,99.44
2022-10-31T08:01:36.912Z,99.62
2022-10-31T08:06:07.738Z,100.00
2022-10-31T08:10:33.499Z,100.00
2022-10-31T08:14:35.305Z,99.77
2022-10-31T08:18:38.602Z,99.77
2022-10-31T08:22:44.045Z,100.00
2022-10-31T08:26:46.570Z,100.00
2022-10-31T08:30:48.516Z,100.00
2022-10-31T08:35:25.469Z,100.00
2022-10-31T08:39:59.169Z,100.00
2022-10-31T08:44:00.941Z,100.00
2022-10-31T08:48:05.785Z,100.00
2022-10-31T08:52:12.030Z,100.00
2022-10-31T08:56:16.569Z,100.00
2022-10-31T09:00:19.166Z,100.00
2022-10-31T09:04:31.722Z,100.00
2022-10-31T09:08:34.121Z,100.00
2022-10-31T09:12:37.104Z,100.00
2022-10-31T09:17:04.854Z,100.00
2022-10-31T09:21:24.012Z,100.00
2022-10-31T09:25:26.310Z,100.00
2022-10-31T09:29:48.007Z,100.00
2022-10-31T09:33:49.869Z,100.00
2022-10-31T09:38:17.556Z,100.00
2022-10-31T09:42:42.794Z,100.00
2022-10-31T09:47:00.115Z,100.00
2022-10-31T09:51:11.940Z,100.00
2022-10-31T09:55:28.945Z,100.00
2022-10-31T09:59:41.003Z,100.00
2022-10-31T10:03:50.423Z,100.00
2022-10-31T10:08:21.351Z,100.00
2022-10-31T10:13:28.088Z,100.00
2022-10-31T10:17:32.913Z,99.73
2022-10-31T10:21:34.497Z,100.00
2022-10-31T10:25:40.850Z,100.00
2022-10-31T10:29:51.801Z,99.91
2022-10-31T10:34:17.745Z,100.00
2022-10-31T10:38:24.896Z,99.89
2022-10-31T10:42:47.347Z,100.00
2022-10-31T10:47:18.884Z,100.00
2022-10-31T10:52:13.168Z,100.00
2022-10-31T10:56:30.052Z,100.00
2022-10-31T11:00:37.338Z,100.00
2022-10-31T11:04:41.141Z,100.00
2022-10-31T11:08:42.809Z,100.00
2022-10-31T11:12:47.173Z,100.00
2022-10-31T11:16:54.830Z,99.90
2022-10-31T11:20:59.175Z,99.34
2022-10-31T11:25:00.943Z,99.24
2022-10-31T11:29:05.375Z,98.97
2022-10-31T11:33:07.068Z,98.42
2022-10-31T11:37:18.063Z,97.86
2022-10-31T11:41:27.679Z,97.77
2022-10-31T11:45:34.705Z,97.62
2022-10-31T11:49:40.015Z,97.33
2022-10-31T11:53:56.780Z,97.24
2022-10-31T11:58:02.601Z,97.81
2022-10-31T12:02:19.650Z,97.86
2022-10-31T12:06:34.441Z,97.98
2022-10-31T12:10:56.396Z,98.00
2022-10-31T12:15:27.620Z,98.19
2022-10-31T12:19:36.618Z,98.03
2022-10-31T12:23:50.151Z,98.33
2022-10-31T12:28:10.074Z,97.95
2022-10-31T12:32:41.599Z,97.71
2022-10-31T12:37:02.088Z,97.89
2022-10-31T12:41:25.646Z,97.81
2022-10-31T12:45:55.791Z,97.67
2022-10-31T12:50:42.791Z,97.49
2022-10-31T12:54:48.083Z,97.90
2022-10-31T12:59:00.617Z,97.87
2022-10-31T13:03:10.628Z,98.35
2022-10-31T13:07:19.037Z,98.41
2022-10-31T13:11:28.709Z,98.17
2022-10-31T13:15:36.218Z,98.05
2022-10-31T13:19:45.946Z,98.38
2022-10-31T13:23:52.464Z,98.52
2022-10-31T13:27:56.434Z,98.27
2022-10-31T13:31:58.303Z,98.20
2022-10-31T13:36:12.118Z,98.58
2022-10-31T13:40:23.824Z,98.11
2022-10-31T13:44:27.844Z,98.20
2022-10-31T13:48:29.451Z,98.38
2022-10-31T13:52:31.138Z,98.58
2022-10-31T13:56:35.315Z,98.66
2022-10-31T14:00:37.457Z,98.69
2022-10-31T14:04:47.021Z,98.54
2022-10-31T14:08:52.351Z,98.94
2022-10-31T14:13:04.193Z,98.82
2022-10-31T14:17:06.925Z,98.95
2022-10-31T14:21:30.549Z,99.18
2022-10-31T14:25:36.856Z,99.00
2022-10-31T14:29:38.531Z,98.74
2022-10-31T14:33:43.584Z,99.20
2022-10-31T14:38:06.427Z,99.32
2022-10-31T14:42:14.083Z,98.89
2022-10-31T14:46:51.952Z,98.75
2022-10-31T14:50:56.977Z,99.21
2022-10-31T14:55:01.619Z,99.07
2022-10-31T14:59:10.070Z,99.02
2022-10-31T15:03:23.223Z,99.13
2022-10-31T15:07:27.232Z,99.12
2022-10-31T15:11:28.943Z,98.67
2022-10-31T15:15:31.617Z,98.84
2022-10-31T15:19:35.293Z,99.16
2022-10-31T15:23:37.049Z,99.38
2022-10-31T15:27:41.581Z,99.23
2022-10-31T15:31:58.760Z,99.13
2022-10-31T15:36:02.353Z,99.68
2022-10-31T15:40:15.312Z,99.35
2022-10-31T15:44:20.705Z,99.14
2022-10-31T15:48:26.136Z,99.40
2022-10-31T15:52:47.096Z,99.15
2022-10-31T15:56:50.171Z,99.26
2022-10-31T16:01:25.577Z,99.33
2022-10-31T16:05:53.717Z,99.37
2022-10-31T16:10:03.890Z,99.11
2022-10-31T16:14:25.194Z,99.41
2022-10-31T16:18:30.376Z,99.58
2022-10-31T16:22:42.115Z,99.50
2022-10-31T16:26:49.212Z,99.59
2022-10-31T16:30:56.001Z,99.70
2022-10-31T16:35:10.323Z,99.49
2022-10-31T16:39:12.292Z,99.64
2022-10-31T16:43:15.883Z,99.69
2022-10-31T16:47:20.328Z,100.00
2022-10-31T16:51:23.854Z,100.00
2022-10-31T16:55:26.522Z,100.00
2022-10-31T16:59:28.683Z,100.00
2022-10-31T17:03:31.267Z,100.00
2022-10-31T17:07:32.953Z,100.00
2022-10-31T17:11:35.363Z,100.00
2022-10-31T17:15:48.473Z,100.00
2022-10-31T17:19:50.344Z,100.00
2022-10-31T17:23:52.328Z,100.00
2022-10-31T17:27:54.284Z,100.00
2022-10-31T17:31:56.088Z,100.00
2022-10-31T17:35:57.779Z,100.00
2022-10-31T17:39:59.491Z,100.00
2022-10-31T17:44:01.374Z,100.00
2022-10-31T17:48:03.091Z,100.00
2022-10-31T17:52:05.112Z,100.00
2022-10-31T17:56:08.821Z,100.00
2022-10-31T18:00:14.376Z,100.00
2022-10-31T18:04:16.213Z,100.00
2022-10-31T18:08:17.877Z,100.00
2022-10-31T18:12:19.700Z,100.00
2022-10-31T18:16:21.499Z,100.00
2022-10-31T18:20:23.485Z,100.00
2022-10-31T18:24:25.268Z,100.00
2022-10-31T18:28:27.204Z,100.00
2022-10-31T18:32:28.815Z,100.00
2022-10-31T18:36:30.521Z,100.00
2022-10-31T18:40:33.619Z,100.00
2022-10-31T18:44:35.379Z,100.00
2022-10-31T18:48:37.262Z,100.00
2022-10-31T18:52:39.063Z,100.00
2022-10-31T18:56:40.773Z,100.00
2022-10-31T19:00:42.680Z,100.00
2022-10-31T19:04:44.569Z,100.00
2022-10-31T19:08:46.309Z,100.00
2022-10-31T19:12:48.001Z,100.00
2022-10-31T19:16:52.421Z,100.00
2022-10-31T19:20:54.408Z,100.00
2022-10-31T19:24:56.187Z,100.00
2022-10-31T19:28:57.909Z,100.00
2022-10-31T19:32:59.657Z,100.00
2022-10-31T19:37:01.328Z,99.80
2022-10-31T19:41:06.442Z,99.65
2022-10-31T19:45:08.459Z,99.49
2022-10-31T19:49:13.732Z,99.49
2022-10-31T19:53:15.382Z,99.05
2022-10-31T19:57:17.280Z,99.16
2022-10-31T20:01:23.333Z,98.60
2022-10-31T20:05:25.174Z,98.55
2022-10-31T20:09:26.874Z,98.19
2022-10-31T20:13:30.792Z,98.45
2022-10-31T20:17:32.484Z,98.48
2022-10-31T20:21:38.930Z,98.12
2022-10-31T20:25:50.232Z,97.99
2022-10-31T20:29:51.980Z,97.99
2022-10-31T20:33:54.389Z,97.87
2022-10-31T20:37:56.580Z,97.75
2022-10-31T20:41:58.267Z,97.83
2022-10-31T20:46:06.632Z,97.25
2022-10-31T20:50:08.806Z,97.47
2022-10-31T20:54:13.009Z,97.04
2022-10-31T20:58:14.764Z,97.23
2022-10-31T21:02:16.524Z,97.05
2022-10-31T21:06:19.710Z,96.91
2022-10-31T21:10:21.369Z,96.51
2022-10-31T21:14:23.041Z,96.47
2022-10-31T21:18:24.683Z,96.55
2022-10-31T21:22:26.443Z,96.02
2022-10-31T21:26:30.569Z,96.07
2022-10-31T21:30:32.322Z,96.30
2022-10-31T21:34:33.999Z,96.01
2022-10-31T21:38:36.325Z,95.44
2022-10-31T21:42:38.053Z,95.33
2022-10-31T21:46:40.111Z,95.59
2022-10-31T21:50:41.806Z,95.18
2022-10-31T21:54:43.476Z,95.37
2022-10-31T21:58:45.302Z,95.07
2022-10-31T22:02:46.952Z,95.09
2022-10-31T22:06:48.747Z,94.63
2022-10-31T22:10:50.433Z,94.89
2022-10-31T22:14:52.134Z,94.95
2022-10-31T22:18:56.504Z,94.54
2022-10-31T22:22:58.207Z,94.34
2022-10-31T22:27:00.069Z,94.76
2022-10-31T22:31:06.455Z,94.81
2022-10-31T22:35:08.529Z,94.59
2022-10-31T22:39:13.231Z,94.60
2022-10-31T22:43:14.901Z,94.75
2022-10-31T22:47:16.574Z,95.04
2022-10-31T22:51:24.546Z,94.77
2022-10-31T22:55:26.282Z,94.89
2022-10-31T22:59:27.971Z,95.00
2022-10-31T23:03:29.611Z,94.97
2022-10-31T23:07:32.997Z,95.33
2022-10-31T23:11:38.509Z,95.50
2022-10-31T23:15:40.172Z,95.63
2022-10-31T23:19:41.881Z,95.89
2022-10-31T23:23:43.595Z,95.97
2022-10-31T23:27:45.309Z,95.96
2022-10-31T23:31:48.100Z,96.09
2022-10-31T23:35:49.913Z,96.24
2022-10-31T23:39:51.668Z,96.02
2022-10-31T23:43:53.344Z,96.14
2022-10-31T23:47:55.039Z,96.20
2022-10-31T23:51:56.723Z,96.00
2022-10-31T23:55:58.459Z,96.40
